Ocean King — CZ2591 — position and weather

sailwx.info

Track history (hours):
 
Tides and Currents Weather Stations Pressure Air Temp Water Temp Dewpoint Dewpoint Depression Visibility Wind Speed Wind Dir Waves Ship Positions

Ocean King

Last reported at 2018-Jan-18 07:43 UTC. Time now 2018-Feb-21 13:22 UTC.
Position N 31°49' W 116°41'.
Warning: this ship's position is 34 days out of date.

Length 29 m; draft 4 m.

Type: Fishing. MMSI: 316003514.

Date/timePositionNaut miles runAvg speedWind from/ knotsBaromVisibWave heightAir tempDewpointWater temp
2018-Jan-18 07:43N 31°49' W 116°41'  
2018-Jan-12 05:36N 48°17' W 125°07'1 7.3
2018-Jan-12 05:28N 48°18' W 125°08'4 7.5
2018-Jan-12 04:59N 48°21' W 125°09'3 7.3
2018-Jan-12 04:30N 48°25' W 125°10'4 6.2
2018-Jan-12 03:56N 48°28' W 125°11'2 5.2
2018-Jan-12 03:29N 48°30' W 125°12'2 3.8
2018-Jan-12 02:56N 48°32' W 125°14'2 4.6
2018-Jan-12 02:30N 48°34' W 125°13'3 6.5
2018-Jan-12 02:00N 48°37' W 125°13'4 6.8
2018-Jan-12 01:29N 48°41' W 125°13'4 7.6
2018-Jan-12 01:00N 48°44' W 125°14'4 7.1
2018-Jan-12 00:30N 48°48' W 125°14'510.2
2018-Jan-12 00:00N 48°51' W 125°08'1310.3
2018-Jan-11 22:44N 48°60' W 124°53'310.6
2018-Jan-11 22:29N 49°02' W 124°51'510.6
2018-Jan-11 22:00N 49°07' W 124°49'510.1
2018-Jan-11 21:30N 49°12' W 124°49'2 4.3
2018-Jan-11 21:00N 49°14' W 124°49'0 0.0
2018-Jan-11 20:30N 49°14' W 124°49'0 0.2
2018-Jan-11 20:00N 49°14' W 124°49'0 0.0
2018-Jan-11 17:37N 49°14' W 124°49'0 0.0
2018-Jan-11 17:31N 49°14' W 124°49'0 0.0
2018-Jan-11 17:00N 49°14' W 124°49'0 0.0
2018-Jan-11 16:30N 49°14' W 124°49'0 0.0
2018-Jan-11 16:01N 49°14' W 124°49'0 0.0
2018-Jan-11 15:31N 49°14' W 124°49'0 0.0
2018-Jan-11 15:01N 49°14' W 124°49'0 0.0
2018-Jan-11 14:31N 49°14' W 124°49'0 0.0
2018-Jan-11 13:58N 49°14' W 124°49'0 0.0
2018-Jan-11 13:22N 49°14' W 124°49'0 0.0
2018-Jan-11 12:58N 49°14' W 124°49'0 0.0
2018-Jan-11 12:31N 49°14' W 124°49'0 0.0
2018-Jan-11 12:01N 49°14' W 124°49'0 0.0
2018-Jan-11 11:28N 49°14' W 124°49'0 0.0
2018-Jan-11 11:01N 49°14' W 124°49'0 0.0
2018-Jan-11 10:31N 49°14' W 124°49'0 0.0
2018-Jan-11 10:01N 49°14' W 124°49'0 0.0
2018-Jan-11 09:30N 49°14' W 124°49'0 0.0
2018-Jan-11 09:01N 49°14' W 124°49'0 0.0
2018-Jan-11 08:30N 49°14' W 124°49'0 0.0
2018-Jan-11 08:01N 49°14' W 124°49'0 0.0
2018-Jan-11 07:30N 49°14' W 124°49'0 0.0
2018-Jan-11 07:00N 49°14' W 124°49'0 0.0
2018-Jan-11 06:31N 49°14' W 124°49'0 0.0
2018-Jan-11 06:01N 49°14' W 124°49'0 0.0
2018-Jan-11 05:30N 49°14' W 124°49'0 0.0
2018-Jan-11 05:00N 49°14' W 124°49'0 0.0
2018-Jan-11 04:30N 49°14' W 124°49'0 0.0
2018-Jan-11 04:01N 49°14' W 124°49'0 0.0
2018-Jan-11 03:27N 49°14' W 124°49'0 0.0
2018-Jan-11 03:00N 49°14' W 124°49'0 0.0
2018-Jan-11 02:30N 49°14' W 124°49'0 0.0
2018-Jan-11 02:00N 49°14' W 124°49'0 0.0
2018-Jan-11 01:30N 49°14' W 124°49'0 0.0
2018-Jan-11 01:00N 49°14' W 124°49'0 0.0
2018-Jan-11 00:30N 49°14' W 124°49'0 0.0
2018-Jan-11 00:01N 49°14' W 124°49'0 0.0
2018-Jan-10 23:30N 49°14' W 124°49'0 0.0
2018-Jan-10 23:00N 49°14' W 124°49'0 0.0
2018-Jan-10 22:30N 49°14' W 124°49'0 0.0
2018-Jan-10 22:01N 49°14' W 124°49'0 0.0
2018-Jan-10 21:30N 49°14' W 124°49'0 0.0
2018-Jan-10 20:47N 49°14' W 124°49'0 0.0
2018-Jan-10 20:30N 49°14' W 124°49'0 0.0
2018-Jan-10 20:00N 49°14' W 124°49'0 0.0
2018-Jan-10 19:30N 49°14' W 124°49'0 0.0
2018-Jan-10 19:00N 49°14' W 124°49'0 0.0
2018-Jan-10 18:30N 49°14' W 124°49'0 0.0
2018-Jan-10 18:00N 49°14' W 124°49'0 0.0
2018-Jan-10 17:30N 49°14' W 124°49'0 0.0
2018-Jan-10 17:00N 49°14' W 124°49'0 0.0
2018-Jan-10 16:28N 49°14' W 124°49'0 0.0
2018-Jan-10 16:00N 49°14' W 124°49'0 0.0
2018-Jan-10 15:29N 49°14' W 124°49'0 0.0
2018-Jan-10 15:00N 49°14' W 124°49'0 0.0
2018-Jan-10 14:28N 49°14' W 124°49'0 0.0
2018-Jan-10 14:00N 49°14' W 124°49'0 0.0
2018-Jan-10 13:30N 49°14' W 124°49'0 0.0
2018-Jan-10 13:00N 49°14' W 124°49'0 0.0
2018-Jan-10 12:30N 49°14' W 124°49'0 0.0
2018-Jan-10 12:00N 49°14' W 124°49'0 0.0
2018-Jan-10 11:30N 49°14' W 124°49'0 0.0
2018-Jan-10 11:00N 49°14' W 124°49'0 0.0
2018-Jan-10 10:30N 49°14' W 124°49'0 0.0
2018-Jan-10 10:00N 49°14' W 124°49'0 0.0
2018-Jan-10 09:30N 49°14' W 124°49'0 0.0
2018-Jan-10 09:00N 49°14' W 124°49'0 0.0
2018-Jan-10 08:30N 49°14' W 124°49'0 0.0
2018-Jan-10 08:01N 49°14' W 124°49'0 0.0
2018-Jan-10 07:30N 49°14' W 124°49'0 0.0
2018-Jan-10 07:00N 49°14' W 124°49'0 0.0
2018-Jan-10 06:30N 49°14' W 124°49'0 0.0
2018-Jan-10 06:00N 49°14' W 124°49'0 0.0
2018-Jan-10 05:30N 49°14' W 124°49'0 0.0
2018-Jan-10 05:00N 49°14' W 124°49'0 0.0
2018-Jan-10 04:30N 49°14' W 124°49'0 0.0
2018-Jan-10 04:00N 49°14' W 124°49'0 0.0
2018-Jan-10 03:30N 49°14' W 124°49'0 0.0
2018-Jan-10 03:00N 49°14' W 124°49'0 0.0
2018-Jan-10 02:30N 49°14' W 124°49'0 0.0
2018-Jan-10 02:01N 49°14' W 124°49'0 0.0
2018-Jan-10 01:30N 49°14' W 124°49'0 0.0
2018-Jan-10 01:01N 49°14' W 124°49'0 0.0
2018-Jan-10 00:30N 49°14' W 124°49'0 0.0
2018-Jan-10 00:01N 49°14' W 124°49'0 0.0
2018-Jan-09 23:31N 49°14' W 124°49'0 0.0
2018-Jan-09 23:00N 49°14' W 124°49'0 0.0
2018-Jan-09 22:30N 49°14' W 124°49'0 0.0
2018-Jan-09 22:00N 49°14' W 124°49'0 0.0
2018-Jan-09 21:30N 49°14' W 124°49'0 0.0
2018-Jan-09 21:00N 49°14' W 124°49'0 0.0
2018-Jan-09 20:30N 49°14' W 124°49'0 0.0
2018-Jan-09 20:00N 49°14' W 124°49'0 0.0
2018-Jan-09 19:30N 49°14' W 124°49'0 0.0
2018-Jan-09 19:00N 49°14' W 124°49'0 0.0
2018-Jan-09 18:30N 49°14' W 124°49'0 0.0
2018-Jan-09 18:00N 49°14' W 124°49'0 0.0
2018-Jan-09 17:30N 49°14' W 124°49'0 0.0
2018-Jan-09 17:00N 49°14' W 124°49'0 0.0
2018-Jan-09 16:30N 49°14' W 124°49'0 0.0
2018-Jan-09 16:00N 49°14' W 124°49'0 0.0
2018-Jan-09 15:30N 49°14' W 124°49'0 0.0
2018-Jan-09 15:00N 49°14' W 124°49'0 0.0
2018-Jan-09 14:30N 49°14' W 124°49'0 0.0
2018-Jan-09 14:00N 49°14' W 124°49'0 0.0
2018-Jan-09 13:30N 49°14' W 124°49'0 0.0
2018-Jan-09 13:00N 49°14' W 124°49'0 0.0
2018-Jan-09 12:30N 49°14' W 124°49'0 0.0
2018-Jan-09 12:00N 49°14' W 124°49'0 0.0
2018-Jan-09 11:30N 49°14' W 124°49'0 0.0
2018-Jan-09 11:01N 49°14' W 124°49'0 0.0
2018-Jan-09 10:30N 49°14' W 124°49'0 0.0
2018-Jan-09 10:01N 49°14' W 124°49'0 0.0
2018-Jan-09 09:30N 49°14' W 124°49'0 0.0
2018-Jan-09 09:00N 49°14' W 124°49'0 0.0
2018-Jan-09 08:30N 49°14' W 124°49'0 0.0
2018-Jan-09 08:00N 49°14' W 124°49'0 0.0
2018-Jan-09 07:30N 49°14' W 124°49'0 0.0
2018-Jan-09 07:00N 49°14' W 124°49'0 0.0
2018-Jan-09 06:30N 49°14' W 124°49'0 0.0
2018-Jan-09 06:00N 49°14' W 124°49'0 0.0
2018-Jan-09 05:30N 49°14' W 124°49'0 0.0
2018-Jan-09 05:00N 49°14' W 124°49'0 0.0
2018-Jan-09 04:30N 49°14' W 124°49'0 0.0
2018-Jan-09 04:00N 49°14' W 124°49'0 0.0
2018-Jan-09 03:31N 49°14' W 124°49'0 0.0
2018-Jan-09 03:01N 49°14' W 124°49'0 0.0
2018-Jan-09 02:30N 49°14' W 124°49'0 0.0
2018-Jan-09 02:01N 49°14' W 124°49'0 0.0
2018-Jan-09 01:30N 49°14' W 124°49'0 0.0
2018-Jan-09 01:01N 49°14' W 124°49'0 0.0
2018-Jan-09 00:30N 49°14' W 124°49'0 0.0
2018-Jan-09 00:00N 49°14' W 124°49'0 0.0
2018-Jan-08 23:30N 49°14' W 124°49'0 0.0
2018-Jan-08 23:00N 49°14' W 124°49'0 0.0
2018-Jan-08 22:30N 49°14' W 124°49'0 0.0
2018-Jan-08 22:00N 49°14' W 124°49'0 0.0
2018-Jan-08 21:30N 49°14' W 124°49'0 0.0
2018-Jan-08 21:01N 49°14' W 124°49'0 0.0
2018-Jan-08 20:30N 49°14' W 124°49'0 0.0
2018-Jan-08 20:00N 49°14' W 124°49'0 0.0
2018-Jan-08 19:30N 49°14' W 124°49'0 0.0
2018-Jan-08 19:00N 49°14' W 124°49'0 0.0
2018-Jan-08 18:30N 49°14' W 124°49'0 0.0
2018-Jan-08 18:01N 49°14' W 124°49'0 0.0
2018-Jan-08 17:30N 49°14' W 124°49'0 0.0
2018-Jan-08 17:01N 49°14' W 124°49'0 0.0
2018-Jan-08 16:31N 49°14' W 124°49'0 0.0
2018-Jan-08 16:01N 49°14' W 124°49'0 0.0
2018-Jan-08 15:31N 49°14' W 124°49'0 0.0
2018-Jan-08 15:01N 49°14' W 124°49'0 0.0
2018-Jan-08 14:30N 49°14' W 124°49'0 0.0
2018-Jan-08 14:00N 49°14' W 124°49'0 0.0
2018-Jan-08 13:31N 49°14' W 124°49'0 0.0
2018-Jan-08 13:00N 49°14' W 124°49'0 0.0
2018-Jan-08 12:30N 49°14' W 124°49'0 0.0
2018-Jan-08 12:00N 49°14' W 124°49'0 0.0
2018-Jan-08 11:31N 49°14' W 124°49'0 0.0
2018-Jan-08 11:01N 49°14' W 124°49'0 0.0
2018-Jan-08 10:31N 49°14' W 124°49'0 0.0
2018-Jan-08 10:01N 49°14' W 124°49'0 0.0
2018-Jan-08 09:31N 49°14' W 124°49'0 0.0
2018-Jan-08 09:01N 49°14' W 124°49'0 0.0
2018-Jan-08 08:30N 49°14' W 124°49'0 0.0
2018-Jan-08 08:00N 49°14' W 124°49'  
Track history (hours):
 
Tides and Currents Weather Stations Pressure Air Temp Water Temp Dewpoint Dewpoint Depression Visibility Wind Speed Wind Dir Waves Ship Positions

Ocean King

Last reported at 2018-Jan-18 07:43 UTC. Time now 2018-Feb-21 13:22 UTC.
Position N 31°49' W 116°41'.
Warning: this ship's position is 34 days out of date.

Length 29 m; draft 4 m.

Type: Fishing. MMSI: 316003514.

Date/timePositionNaut miles runAvg speedWind from/ knotsBaromVisibWave heightAir tempDewpointWater temp
2018-Jan-18 07:43N 31°49' W 116°41'  
2018-Jan-12 05:36N 48°17' W 125°07'1 7.3
2018-Jan-12 05:28N 48°18' W 125°08'4 7.5
2018-Jan-12 04:59N 48°21' W 125°09'3 7.3
2018-Jan-12 04:30N 48°25' W 125°10'4 6.2
2018-Jan-12 03:56N 48°28' W 125°11'2 5.2
2018-Jan-12 03:29N 48°30' W 125°12'2 3.8
2018-Jan-12 02:56N 48°32' W 125°14'2 4.6
2018-Jan-12 02:30N 48°34' W 125°13'3 6.5
2018-Jan-12 02:00N 48°37' W 125°13'4 6.8
2018-Jan-12 01:29N 48°41' W 125°13'4 7.6
2018-Jan-12 01:00N 48°44' W 125°14'4 7.1
2018-Jan-12 00:30N 48°48' W 125°14'510.2
2018-Jan-12 00:00N 48°51' W 125°08'1310.3
2018-Jan-11 22:44N 48°60' W 124°53'310.6
2018-Jan-11 22:29N 49°02' W 124°51'510.6
2018-Jan-11 22:00N 49°07' W 124°49'510.1
2018-Jan-11 21:30N 49°12' W 124°49'2 4.3
2018-Jan-11 21:00N 49°14' W 124°49'0 0.0
2018-Jan-11 20:30N 49°14' W 124°49'0 0.2
2018-Jan-11 20:00N 49°14' W 124°49'0 0.0
2018-Jan-11 17:37N 49°14' W 124°49'0 0.0
2018-Jan-11 17:31N 49°14' W 124°49'0 0.0
2018-Jan-11 17:00N 49°14' W 124°49'0 0.0
2018-Jan-11 16:30N 49°14' W 124°49'0 0.0
2018-Jan-11 16:01N 49°14' W 124°49'0 0.0
2018-Jan-11 15:31N 49°14' W 124°49'0 0.0
2018-Jan-11 15:01N 49°14' W 124°49'0 0.0
2018-Jan-11 14:31N 49°14' W 124°49'0 0.0
2018-Jan-11 13:58N 49°14' W 124°49'0 0.0
2018-Jan-11 13:22N 49°14' W 124°49'0 0.0
2018-Jan-11 12:58N 49°14' W 124°49'0 0.0
2018-Jan-11 12:31N 49°14' W 124°49'0 0.0
2018-Jan-11 12:01N 49°14' W 124°49'0 0.0
2018-Jan-11 11:28N 49°14' W 124°49'0 0.0
2018-Jan-11 11:01N 49°14' W 124°49'0 0.0
2018-Jan-11 10:31N 49°14' W 124°49'0 0.0
2018-Jan-11 10:01N 49°14' W 124°49'0 0.0
2018-Jan-11 09:30N 49°14' W 124°49'0 0.0
2018-Jan-11 09:01N 49°14' W 124°49'0 0.0
2018-Jan-11 08:30N 49°14' W 124°49'0 0.0
2018-Jan-11 08:01N 49°14' W 124°49'0 0.0
2018-Jan-11 07:30N 49°14' W 124°49'0 0.0
2018-Jan-11 07:00N 49°14' W 124°49'0 0.0
2018-Jan-11 06:31N 49°14' W 124°49'0 0.0
2018-Jan-11 06:01N 49°14' W 124°49'0 0.0
2018-Jan-11 05:30N 49°14' W 124°49'0 0.0
2018-Jan-11 05:00N 49°14' W 124°49'0 0.0
2018-Jan-11 04:30N 49°14' W 124°49'0 0.0
2018-Jan-11 04:01N 49°14' W 124°49'0 0.0
2018-Jan-11 03:27N 49°14' W 124°49'0 0.0
2018-Jan-11 03:00N 49°14' W 124°49'0 0.0
2018-Jan-11 02:30N 49°14' W 124°49'0 0.0
2018-Jan-11 02:00N 49°14' W 124°49'0 0.0
2018-Jan-11 01:30N 49°14' W 124°49'0 0.0
2018-Jan-11 01:00N 49°14' W 124°49'0 0.0
2018-Jan-11 00:30N 49°14' W 124°49'0 0.0
2018-Jan-11 00:01N 49°14' W 124°49'0 0.0
2018-Jan-10 23:30N 49°14' W 124°49'0 0.0
2018-Jan-10 23:00N 49°14' W 124°49'0 0.0
2018-Jan-10 22:30N 49°14' W 124°49'0 0.0
2018-Jan-10 22:01N 49°14' W 124°49'0 0.0
2018-Jan-10 21:30N 49°14' W 124°49'0 0.0
2018-Jan-10 20:47N 49°14' W 124°49'0 0.0
2018-Jan-10 20:30N 49°14' W 124°49'0 0.0
2018-Jan-10 20:00N 49°14' W 124°49'0 0.0
2018-Jan-10 19:30N 49°14' W 124°49'0 0.0
2018-Jan-10 19:00N 49°14' W 124°49'0 0.0
2018-Jan-10 18:30N 49°14' W 124°49'0 0.0
2018-Jan-10 18:00N 49°14' W 124°49'0 0.0
2018-Jan-10 17:30N 49°14' W 124°49'0 0.0
2018-Jan-10 17:00N 49°14' W 124°49'0 0.0
2018-Jan-10 16:28N 49°14' W 124°49'0 0.0
2018-Jan-10 16:00N 49°14' W 124°49'0 0.0
2018-Jan-10 15:29N 49°14' W 124°49'0 0.0
2018-Jan-10 15:00N 49°14' W 124°49'0 0.0
2018-Jan-10 14:28N 49°14' W 124°49'0 0.0
2018-Jan-10 14:00N 49°14' W 124°49'0 0.0
2018-Jan-10 13:30N 49°14' W 124°49'0 0.0
2018-Jan-10 13:00N 49°14' W 124°49'0 0.0
2018-Jan-10 12:30N 49°14' W 124°49'0 0.0
2018-Jan-10 12:00N 49°14' W 124°49'0 0.0
2018-Jan-10 11:30N 49°14' W 124°49'0 0.0
2018-Jan-10 11:00N 49°14' W 124°49'0 0.0
2018-Jan-10 10:30N 49°14' W 124°49'0 0.0
2018-Jan-10 10:00N 49°14' W 124°49'0 0.0
2018-Jan-10 09:30N 49°14' W 124°49'0 0.0
2018-Jan-10 09:00N 49°14' W 124°49'0 0.0
2018-Jan-10 08:30N 49°14' W 124°49'0 0.0
2018-Jan-10 08:01N 49°14' W 124°49'0 0.0
2018-Jan-10 07:30N 49°14' W 124°49'0 0.0
2018-Jan-10 07:00N 49°14' W 124°49'0 0.0
2018-Jan-10 06:30N 49°14' W 124°49'0 0.0
2018-Jan-10 06:00N 49°14' W 124°49'0 0.0
2018-Jan-10 05:30N 49°14' W 124°49'0 0.0
2018-Jan-10 05:00N 49°14' W 124°49'0 0.0
2018-Jan-10 04:30N 49°14' W 124°49'0 0.0
2018-Jan-10 04:00N 49°14' W 124°49'0 0.0
2018-Jan-10 03:30N 49°14' W 124°49'0 0.0
2018-Jan-10 03:00N 49°14' W 124°49'0 0.0
2018-Jan-10 02:30N 49°14' W 124°49'0 0.0
2018-Jan-10 02:01N 49°14' W 124°49'0 0.0
2018-Jan-10 01:30N 49°14' W 124°49'0 0.0
2018-Jan-10 01:01N 49°14' W 124°49'0 0.0
2018-Jan-10 00:30N 49°14' W 124°49'0 0.0
2018-Jan-10 00:01N 49°14' W 124°49'0 0.0
2018-Jan-09 23:31N 49°14' W 124°49'0 0.0
2018-Jan-09 23:00N 49°14' W 124°49'0 0.0
2018-Jan-09 22:30N 49°14' W 124°49'0 0.0
2018-Jan-09 22:00N 49°14' W 124°49'0 0.0
2018-Jan-09 21:30N 49°14' W 124°49'0 0.0
2018-Jan-09 21:00N 49°14' W 124°49'0 0.0
2018-Jan-09 20:30N 49°14' W 124°49'0 0.0
2018-Jan-09 20:00N 49°14' W 124°49'0 0.0
2018-Jan-09 19:30N 49°14' W 124°49'0 0.0
2018-Jan-09 19:00N 49°14' W 124°49'0 0.0
2018-Jan-09 18:30N 49°14' W 124°49'0 0.0
2018-Jan-09 18:00N 49°14' W 124°49'0 0.0
2018-Jan-09 17:30N 49°14' W 124°49'0 0.0
2018-Jan-09 17:00N 49°14' W 124°49'0 0.0
2018-Jan-09 16:30N 49°14' W 124°49'0 0.0
2018-Jan-09 16:00N 49°14' W 124°49'0 0.0
2018-Jan-09 15:30N 49°14' W 124°49'0 0.0
2018-Jan-09 15:00N 49°14' W 124°49'0 0.0
2018-Jan-09 14:30N 49°14' W 124°49'0 0.0
2018-Jan-09 14:00N 49°14' W 124°49'0 0.0
2018-Jan-09 13:30N 49°14' W 124°49'0 0.0
2018-Jan-09 13:00N 49°14' W 124°49'0 0.0
2018-Jan-09 12:30N 49°14' W 124°49'0 0.0
2018-Jan-09 12:00N 49°14' W 124°49'0 0.0
2018-Jan-09 11:30N 49°14' W 124°49'0 0.0
2018-Jan-09 11:01N 49°14' W 124°49'0 0.0
2018-Jan-09 10:30N 49°14' W 124°49'0 0.0
2018-Jan-09 10:01N 49°14' W 124°49'0 0.0
2018-Jan-09 09:30N 49°14' W 124°49'0 0.0
2018-Jan-09 09:00N 49°14' W 124°49'0 0.0
2018-Jan-09 08:30N 49°14' W 124°49'0 0.0
2018-Jan-09 08:00N 49°14' W 124°49'0 0.0
2018-Jan-09 07:30N 49°14' W 124°49'0 0.0
2018-Jan-09 07:00N 49°14' W 124°49'0 0.0
2018-Jan-09 06:30N 49°14' W 124°49'0 0.0
2018-Jan-09 06:00N 49°14' W 124°49'0 0.0
2018-Jan-09 05:30N 49°14' W 124°49'0 0.0
2018-Jan-09 05:00N 49°14' W 124°49'0 0.0
2018-Jan-09 04:30N 49°14' W 124°49'0 0.0
2018-Jan-09 04:00N 49°14' W 124°49'0 0.0
2018-Jan-09 03:31N 49°14' W 124°49'0 0.0
2018-Jan-09 03:01N 49°14' W 124°49'0 0.0
2018-Jan-09 02:30N 49°14' W 124°49'0 0.0
2018-Jan-09 02:01N 49°14' W 124°49'0 0.0
2018-Jan-09 01:30N 49°14' W 124°49'0 0.0
2018-Jan-09 01:01N 49°14' W 124°49'0 0.0
2018-Jan-09 00:30N 49°14' W 124°49'0 0.0
2018-Jan-09 00:00N 49°14' W 124°49'0 0.0
2018-Jan-08 23:30N 49°14' W 124°49'0 0.0
2018-Jan-08 23:00N 49°14' W 124°49'0 0.0
2018-Jan-08 22:30N 49°14' W 124°49'0 0.0
2018-Jan-08 22:00N 49°14' W 124°49'0 0.0
2018-Jan-08 21:30N 49°14' W 124°49'0 0.0
2018-Jan-08 21:01N 49°14' W 124°49'0 0.0
2018-Jan-08 20:30N 49°14' W 124°49'0 0.0
2018-Jan-08 20:00N 49°14' W 124°49'0 0.0
2018-Jan-08 19:30N 49°14' W 124°49'0 0.0
2018-Jan-08 19:00N 49°14' W 124°49'0 0.0
2018-Jan-08 18:30N 49°14' W 124°49'0 0.0
2018-Jan-08 18:01N 49°14' W 124°49'0 0.0
2018-Jan-08 17:30N 49°14' W 124°49'0 0.0
2018-Jan-08 17:01N 49°14' W 124°49'0 0.0
2018-Jan-08 16:31N 49°14' W 124°49'0 0.0
2018-Jan-08 16:01N 49°14' W 124°49'0 0.0
2018-Jan-08 15:31N 49°14' W 124°49'0 0.0
2018-Jan-08 15:01N 49°14' W 124°49'0 0.0
2018-Jan-08 14:30N 49°14' W 124°49'0 0.0
2018-Jan-08 14:00N 49°14' W 124°49'0 0.0
2018-Jan-08 13:31N 49°14' W 124°49'0 0.0
2018-Jan-08 13:00N 49°14' W 124°49'0 0.0
2018-Jan-08 12:30N 49°14' W 124°49'0 0.0
2018-Jan-08 12:00N 49°14' W 124°49'0 0.0
2018-Jan-08 11:31N 49°14' W 124°49'0 0.0
2018-Jan-08 11:01N 49°14' W 124°49'0 0.0
2018-Jan-08 10:31N 49°14' W 124°49'0 0.0
2018-Jan-08 10:01N 49°14' W 124°49'0 0.0
2018-Jan-08 09:31N 49°14' W 124°49'0 0.0
2018-Jan-08 09:01N 49°14' W 124°49'0 0.0
2018-Jan-08 08:30N 49°14' W 124°49'0 0.0
2018-Jan-08 08:00N 49°14' W 124°49'  

Dump ship's entire track history